sensor_id;sensor_type;location;lat;lon;timestamp;pressure;altitude;pressure_sealevel;temperature;humidity
54546;BME280;40444;45.184;9.850;2023-02-22T18:20:24;100931.47;;;10.00;100.00
54546;BME280;40444;45.184;9.850;2023-02-22T18:23:06;100936.53;;;10.15;100.00
54546;BME280;40444;45.184;9.850;2023-02-22T18:25:35;100936.41;;;10.27;100.00
54546;BME280;40444;45.184;9.850;2023-02-22T18:28:04;100936.47;;;10.37;100.00
54546;BME280;40444;45.184;9.850;2023-02-22T18:30:34;100933.88;;;10.47;100.00
54546;BME280;40444;45.184;9.850;2023-02-22T18:33:03;100945.66;;;10.55;100.00
54546;BME280;40444;45.184;9.850;2023-02-22T18:35:31;100936.97;;;10.63;100.00
54546;BME280;40444;45.184;9.850;2023-02-22T18:38:00;100943.38;;;10.72;100.00
54546;BME280;40444;45.184;9.850;2023-02-22T18:40:29;100937.34;;;10.79;100.00
54546;BME280;40444;45.184;9.850;2023-02-22T18:42:57;100930.06;;;10.81;100.00
54546;BME280;40444;45.184;9.850;2023-02-22T18:45:25;100933.13;;;10.77;100.00
54546;BME280;40444;45.184;9.850;2023-02-22T18:47:54;100935.41;;;10.81;100.00
54546;BME280;40444;45.184;9.850;2023-02-22T18:50:23;100936.00;;;10.85;100.00
54546;BME280;40444;45.184;9.850;2023-02-22T18:52:51;100927.69;;;10.88;100.00
54546;BME280;40444;45.184;9.850;2023-02-22T18:55:20;100935.47;;;10.91;100.00
54546;BME280;40444;45.184;9.850;2023-02-22T18:57:49;100930.81;;;10.93;100.00
54546;BME280;40444;45.184;9.850;2023-02-22T19:00:19;100934.94;;;10.97;100.00
54546;BME280;40444;45.184;9.850;2023-02-22T19:02:55;100934.81;;;10.99;100.00
54546;BME280;40444;45.184;9.850;2023-02-22T19:05:25;100932.69;;;11.02;100.00
54546;BME280;40444;45.184;9.850;2023-02-22T19:07:54;100938.94;;;11.03;100.00
54546;BME280;40444;45.184;9.850;2023-02-22T19:10:22;100941.63;;;11.03;100.00
54546;BME280;40444;45.184;9.850;2023-02-22T19:12:50;100935.53;;;11.01;100.00
54546;BME280;40444;45.184;9.850;2023-02-22T19:15:19;100926.78;;;10.99;100.00
54546;BME280;40444;45.184;9.850;2023-02-22T19:17:47;100926.88;;;10.97;100.00
54546;BME280;40444;45.184;9.850;2023-02-22T19:20:18;100925.06;;;10.98;100.00
54546;BME280;40444;45.184;9.850;2023-02-22T19:22:46;100920.69;;;10.97;100.00
54546;BME280;40444;45.184;9.850;2023-02-22T19:25:16;100922.78;;;10.93;100.00
54546;BME280;40444;45.184;9.850;2023-02-22T19:27:44;100922.06;;;10.91;100.00
54546;BME280;40444;45.184;9.850;2023-02-22T19:30:13;100925.84;;;10.88;100.00
54546;BME280;40444;45.184;9.850;2023-02-22T19:32:43;100921.22;;;10.91;100.00
54546;BME280;40444;45.184;9.850;2023-02-22T19:35:15;100928.28;;;10.92;100.00
54546;BME280;40444;45.184;9.850;2023-02-22T19:37:55;100929.13;;;10.92;100.00
54546;BME280;40444;45.184;9.850;2023-02-22T19:40:25;100924.88;;;10.90;100.00
54546;BME280;40444;45.184;9.850;2023-02-22T19:42:55;100922.22;;;10.90;100.00
54546;BME280;40444;45.184;9.850;2023-02-22T19:45:24;100917.94;;;10.87;100.00
54546;BME280;40444;45.184;9.850;2023-02-22T19:47:54;100916.38;;;10.84;100.00
54546;BME280;40444;45.184;9.850;2023-02-22T19:50:23;100925.28;;;10.85;100.00
54546;BME280;40444;45.184;9.850;2023-02-22T19:52:51;100927.97;;;10.85;100.00
54546;BME280;40444;45.184;9.850;2023-02-22T19:55:20;100926.97;;;10.86;100.00
54546;BME280;40444;45.184;9.850;2023-02-22T19:57:49;100923.44;;;10.85;100.00
54546;BME280;40444;45.184;9.850;2023-02-22T20:00:17;100928.53;;;10.88;100.00
54546;BME280;40444;45.184;9.850;2023-02-22T20:02:57;100914.41;;;10.86;100.00
54546;BME280;40444;45.184;9.850;2023-02-22T20:05:33;100918.34;;;10.82;100.00
54546;BME280;40444;45.184;9.850;2023-02-22T20:08:04;100923.25;;;10.77;100.00
54546;BME280;40444;45.184;9.850;2023-02-22T20:10:32;100926.19;;;10.74;100.00
54546;BME280;40444;45.184;9.850;2023-02-22T20:13:04;100920.13;;;10.72;100.00
54546;BME280;40444;45.184;9.850;2023-02-22T20:15:32;100929.84;;;10.73;100.00
54546;BME280;40444;45.184;9.850;2023-02-22T20:18:01;100919.28;;;10.72;100.00
54546;BME280;40444;45.184;9.850;2023-02-22T20:20:29;100926.31;;;10.73;100.00
54546;BME280;40444;45.184;9.850;2023-02-22T20:22:58;100923.50;;;10.74;100.00
54546;BME280;40444;45.184;9.850;2023-02-22T20:25:26;100931.53;;;10.74;100.00
54546;BME280;40444;45.184;9.850;2023-02-22T20:27:55;100930.84;;;10.72;100.00
54546;BME280;40444;45.184;9.850;2023-02-22T20:30:23;100926.56;;;10.70;100.00
54546;BME280;40444;45.184;9.850;2023-02-22T20:32:51;100932.31;;;10.65;100.00
54546;BME280;40444;45.184;9.850;2023-02-22T20:35:20;100936.09;;;10.62;100.00
54546;BME280;40444;45.184;9.850;2023-02-22T20:37:48;100931.88;;;10.60;100.00
54546;BME280;40444;45.184;9.850;2023-02-22T20:40:17;100930.88;;;10.61;100.00
54546;BME280;40444;45.184;9.850;2023-02-22T20:42:45;100933.31;;;10.64;100.00
54546;BME280;40444;45.184;9.850;2023-02-22T20:45:14;100928.06;;;10.62;100.00
54546;BME280;40444;45.184;9.850;2023-02-22T20:47:44;100936.97;;;10.63;100.00
54546;BME280;40444;45.184;9.850;2023-02-22T20:50:12;100926.38;;;10.61;100.00
54546;BME280;40444;45.184;9.850;2023-02-22T20:52:40;100933.56;;;10.61;100.00
54546;BME280;40444;45.184;9.850;2023-02-22T20:55:09;100931.63;;;10.63;100.00
54546;BME280;40444;45.184;9.850;2023-02-22T20:57:38;100930.88;;;10.61;100.00
54546;BME280;40444;45.184;9.850;2023-02-22T21:00:07;100927.34;;;10.60;100.00
54546;BME280;40444;45.184;9.850;2023-02-22T21:02:37;100926.66;;;10.58;100.00
54546;BME280;40444;45.184;9.850;2023-02-22T21:05:05;100924.81;;;10.59;100.00
54546;BME280;40444;45.184;9.850;2023-02-22T21:07:33;100925.78;;;10.58;100.00
54546;BME280;40444;45.184;9.850;2023-02-22T21:10:02;100920.41;;;10.58;100.00
54546;BME280;40444;45.184;9.850;2023-02-22T21:12:34;100920.56;;;10.56;100.00
54546;BME280;40444;45.184;9.850;2023-02-22T21:15:02;100929.13;;;10.50;100.00
54546;BME280;40444;45.184;9.850;2023-02-22T21:17:30;100922.94;;;10.38;100.00
54546;BME280;40444;45.184;9.850;2023-02-22T21:19:58;100922.09;;;10.38;100.00
54546;BME280;40444;45.184;9.850;2023-02-22T21:22:28;100916.75;;;10.38;100.00
54546;BME280;40444;45.184;9.850;2023-02-22T21:24:55;100921.41;;;10.36;100.00
54546;BME280;40444;45.184;9.850;2023-02-22T21:27:24;100918.81;;;10.34;100.00
54546;BME280;40444;45.184;9.850;2023-02-22T21:29:52;100918.72;;;10.36;100.00
54546;BME280;40444;45.184;9.850;2023-02-22T21:32:24;100922.09;;;10.38;100.00
54546;BME280;40444;45.184;9.850;2023-02-22T21:34:52;100924.53;;;10.41;100.00
54546;BME280;40444;45.184;9.850;2023-02-22T21:37:21;100924.53;;;10.41;100.00
54546;BME280;40444;45.184;9.850;2023-02-22T21:39:49;100921.72;;;10.43;100.00
54546;BME280;40444;45.184;9.850;2023-02-22T21:42:17;100916.34;;;10.43;100.00
54546;BME280;40444;45.184;9.850;2023-02-22T21:44:45;100922.47;;;10.45;100.00
54546;BME280;40444;45.184;9.850;2023-02-22T21:47:24;100912.84;;;10.42;100.00
54546;BME280;40444;45.184;9.850;2023-02-22T21:49:52;100916.34;;;10.43;100.00
54546;BME280;40444;45.184;9.850;2023-02-22T21:52:20;100913.53;;;10.44;100.00
54546;BME280;40444;45.184;9.850;2023-02-22T21:54:48;100903.81;;;10.43;100.00
54546;BME280;40444;45.184;9.850;2023-02-22T21:57:17;100907.34;;;10.44;100.00
54546;BME280;40444;45.184;9.850;2023-02-22T21:59:45;100906.63;;;10.42;100.00
54546;BME280;40444;45.184;9.850;2023-02-22T22:02:15;100906.63;;;10.42;100.00
54546;BME280;40444;45.184;9.850;2023-02-22T22:04:43;100911.13;;;10.41;100.00
54546;BME280;40444;45.184;9.850;2023-02-22T22:07:12;100905.19;;;10.37;100.00
54546;BME280;40444;45.184;9.850;2023-02-22T22:09:40;100902.38;;;10.39;100.00
54546;BME280;40444;45.184;9.850;2023-02-22T22:12:10;100905.03;;;10.39;100.00
54546;BME280;40444;45.184;9.850;2023-02-22T22:14:38;100902.25;;;10.41;100.00
54546;BME280;40444;45.184;9.850;2023-02-22T22:17:07;100903.81;;;10.43;100.00
54546;BME280;40444;45.184;9.850;2023-02-22T22:19:37;100909.75;;;10.47;100.00
54546;BME280;40444;45.184;9.850;2023-02-22T22:22:11;100908.78;;;10.48;100.00
54546;BME280;40444;45.184;9.850;2023-02-22T22:24:39;100899.91;;;10.47;100.00
54546;BME280;40444;45.184;9.850;2023-02-22T22:27:12;100900.75;;;10.48;100.00
54546;BME280;40444;45.184;9.850;2023-02-22T22:29:41;100905.13;;;10.49;100.00
54546;BME280;40444;45.184;9.850;2023-02-22T22:32:10;100894.41;;;10.49;100.00
54546;BME280;40444;45.184;9.850;2023-02-22T22:34:39;100890.03;;;10.48;100.00
54546;BME280;40444;45.184;9.850;2023-02-22T22:37:07;100893.69;;;10.47;100.00
54546;BME280;40444;45.184;9.850;2023-02-22T22:39:35;100893.69;;;10.47;100.00
54546;BME280;40444;45.184;9.850;2023-02-22T22:42:05;100893.94;;;10.44;100.00
54546;BME280;40444;45.184;9.850;2023-02-22T22:44:35;100887.03;;;10.41;100.00
54546;BME280;40444;45.184;9.850;2023-02-22T22:47:09;100881.66;;;10.41;100.00
54546;BME280;40444;45.184;9.850;2023-02-22T22:49:40;100887.13;;;10.40;100.00
54546;BME280;40444;45.184;9.850;2023-02-22T22:52:11;100884.75;;;10.36;100.00
54546;BME280;40444;45.184;9.850;2023-02-22T22:54:42;100873.19;;;10.36;100.00
54546;BME280;40444;45.184;9.850;2023-02-22T22:57:10;100883.00;;;10.35;100.00
54546;BME280;40444;45.184;9.850;2023-02-22T22:59:39;100881.31;;;10.34;100.00
54546;BME280;40444;45.184;9.850;2023-02-22T23:02:07;100878.78;;;10.33;100.00
54546;BME280;40444;45.184;9.850;2023-02-22T23:04:38;100879.78;;;10.32;100.00
54546;BME280;40444;45.184;9.850;2023-02-22T23:07:06;100876.34;;;10.30;100.00
54546;BME280;40444;45.184;9.850;2023-02-22T23:09:34;100873.56;;;10.31;100.00
54546;BME280;40444;45.184;9.850;2023-02-22T23:12:06;100880.47;;;10.34;100.00
54546;BME280;40444;45.184;9.850;2023-02-22T23:14:44;100875.13;;;10.34;100.00
54546;BME280;40444;45.184;9.850;2023-02-22T23:17:14;100874.97;;;10.35;100.00
54546;BME280;40444;45.184;9.850;2023-02-22T23:19:53;100874.03;;;10.36;100.00
54546;BME280;40444;45.184;9.850;2023-02-22T23:22:21;100868.78;;;10.35;100.00
54546;BME280;40444;45.184;9.850;2023-02-22T23:24:50;100871.47;;;10.35;100.00
54546;BME280;40444;45.184;9.850;2023-02-22T23:27:18;100872.31;;;10.35;100.00
54546;BME280;40444;45.184;9.850;2023-02-22T23:29:46;100870.59;;;10.34;100.00
54546;BME280;40444;45.184;9.850;2023-02-22T23:32:16;100865.53;;;10.31;100.00
54546;BME280;40444;45.184;9.850;2023-02-22T23:34:44;100871.28;;;10.27;100.00
54546;BME280;40444;45.184;9.850;2023-02-22T23:37:16;100863.50;;;10.12;100.00
54546;BME280;40444;45.184;9.850;2023-02-22T23:39:47;100865.53;;;9.88;100.00
54546;BME280;40444;45.184;9.850;2023-02-22T23:42:17;100873.16;;;9.49;100.00
54546;BME280;40444;45.184;9.850;2023-02-22T23:44:46;100867.81;;;9.49;100.00
54546;BME280;40444;45.184;9.850;2023-02-22T23:47:15;100868.38;;;9.64;100.00
54546;BME280;40444;45.184;9.850;2023-02-22T23:49:43;100875.19;;;9.68;100.00
54546;BME280;40444;45.184;9.850;2023-02-22T23:52:16;100865.84;;;9.74;100.00
54546;BME280;40444;45.184;9.850;2023-02-22T23:54:51;100866.06;;;9.71;100.00
54546;BME280;40444;45.184;9.850;2023-02-22T23:57:21;100862.31;;;9.73;100.00
54546;BME280;40444;45.184;9.850;2023-02-22T23:59:49;100864.47;;;9.68;100.00
